createdAt,value
2019-02-16T20:35:32.143Z,41.96
2019-02-16T20:36:31.991Z,39.65
2019-02-16T20:38:07.494Z,39.14
2019-02-16T20:39:07.502Z,38.85
2019-02-16T20:40:07.442Z,38.26
2019-02-16T20:41:07.425Z,38.64
2019-02-16T20:42:07.408Z,38.26
2019-02-16T20:43:07.401Z,37.54
2019-02-16T20:44:07.397Z,37.74
2019-02-16T20:45:07.392Z,39.34
2019-02-16T20:46:07.398Z,38.76
2019-02-16T20:47:07.360Z,38.26
2019-02-16T20:48:07.344Z,38.14
2019-02-16T20:49:07.332Z,38.76
2019-02-16T20:50:07.320Z,38.46
2019-02-16T20:51:07.314Z,38.56
2019-02-16T20:52:07.307Z,38.38
2019-02-16T20:53:07.291Z,38.78
2019-02-16T20:54:07.278Z,38.66
2019-02-16T20:55:07.277Z,38.78
2019-02-16T20:56:07.258Z,38.57
2019-02-16T20:57:07.248Z,38.48
2019-02-16T20:58:07.239Z,38.38
2019-02-16T20:59:07.246Z,38.48
2019-02-16T21:00:07.215Z,38.49
2019-02-16T21:01:07.213Z,38.59
2019-02-16T21:02:07.199Z,38.70
2019-02-16T21:03:07.190Z,38.40
2019-02-16T21:04:07.188Z,38.70
2019-02-16T21:05:07.178Z,38.70
2019-02-16T21:06:07.153Z,38.20
2019-02-16T21:07:07.150Z,38.71
2019-02-16T21:08:07.139Z,38.79
2019-02-16T21:09:07.129Z,38.29
2019-02-16T21:10:07.127Z,38.42
2019-02-16T21:11:07.119Z,38.31
2019-02-16T21:12:07.094Z,38.21
2019-02-16T21:13:07.088Z,38.71
2019-02-16T21:14:07.079Z,38.11
2019-02-16T21:15:07.068Z,38.31
2019-02-16T21:16:07.053Z,38.11
2019-02-16T21:17:07.040Z,38.31
2019-02-16T21:18:07.033Z,38.31
2019-02-16T21:19:07.020Z,38.91
2019-02-16T21:20:07.011Z,39.43
2019-02-16T21:21:07.001Z,38.93
2019-02-16T21:22:08.751Z,39.63
2019-02-16T21:23:06.979Z,39.03
2019-02-16T21:24:06.969Z,39.43
2019-02-16T21:25:06.963Z,39.72
2019-02-16T21:26:06.949Z,40.43
2019-02-16T21:27:06.948Z,40.63
2019-02-16T21:28:06.922Z,40.13
2019-02-16T21:29:06.909Z,40.73
2019-02-16T21:30:06.890Z,40.81
2019-02-16T21:31:06.891Z,40.53
2019-02-16T21:32:06.870Z,40.73
2019-02-16T21:33:06.860Z,40.53
2019-02-16T21:34:06.866Z,40.63
2019-02-16T21:35:06.841Z,40.53
2019-02-16T21:36:06.833Z,41.43
2019-02-16T21:37:06.831Z,40.73
2019-02-16T21:38:06.813Z,40.83
2019-02-16T21:39:06.797Z,40.73
2019-02-16T21:40:06.793Z,40.93
2019-02-16T21:41:06.787Z,40.53
2019-02-16T21:42:06.770Z,40.53
2019-02-16T21:43:06.754Z,40.93
2019-02-16T21:44:06.753Z,40.73
2019-02-16T21:45:06.749Z,41.03
2019-02-16T21:46:06.723Z,40.73
2019-02-16T21:47:06.710Z,40.63
2019-02-16T21:48:06.704Z,40.83
2019-02-16T21:49:06.685Z,40.73
2019-02-16T21:50:06.680Z,40.75
2019-02-16T21:51:06.663Z,40.53
2019-02-16T21:52:06.666Z,40.75
2019-02-16T21:53:07.584Z,40.65
2019-02-16T21:54:06.628Z,41.05
2019-02-16T21:55:06.619Z,40.85
2019-02-16T21:56:06.607Z,41.15
2019-02-16T21:57:06.594Z,40.65
2019-02-16T21:58:08.301Z,41.25
2019-02-16T21:59:07.635Z,41.25
2019-02-16T22:00:06.570Z,41.55
2019-02-16T22:01:06.558Z,41.46
2019-02-16T22:02:06.558Z,41.75
2019-02-16T22:03:06.531Z,41.66
2019-02-16T22:04:06.520Z,41.66
2019-02-16T22:05:06.507Z,41.85
2019-02-16T22:06:06.500Z,41.75
2019-02-16T22:07:06.502Z,41.77
2019-02-16T22:08:06.476Z,41.66
2019-02-16T22:09:06.466Z,41.85
2019-02-16T22:10:06.455Z,41.25
2019-02-16T22:11:06.446Z,41.55
2019-02-16T22:12:06.435Z,41.35
2019-02-16T22:13:06.422Z,41.75
2019-02-16T22:14:06.410Z,41.67
2019-02-16T22:15:06.403Z,41.77
2019-02-16T22:16:06.391Z,41.75
2019-02-16T22:17:06.380Z,41.55
2019-02-16T22:18:06.368Z,41.97
2019-02-16T22:19:06.357Z,41.35
2019-02-16T22:20:06.350Z,41.77
2019-02-16T22:21:06.338Z,41.75
2019-02-16T22:22:06.324Z,42.16
2019-02-16T22:23:06.319Z,42.18
2019-02-16T22:24:06.329Z,41.88
2019-02-16T22:25:06.304Z,41.97
2019-02-16T22:26:06.282Z,42.07
2019-02-16T22:27:06.278Z,42.18
2019-02-16T22:28:06.258Z,42.27
2019-02-16T22:29:06.247Z,41.77
2019-02-16T22:30:06.237Z,41.96
2019-02-16T22:31:06.227Z,41.57
2019-02-16T22:32:06.213Z,41.38
2019-02-16T22:33:06.202Z,41.35
2019-02-16T22:34:06.191Z,41.27
2019-02-16T22:35:06.186Z,41.38
2019-02-16T22:36:06.171Z,41.38
2019-02-16T22:37:06.161Z,42.27
2019-02-16T22:38:06.148Z,41.97
2019-02-16T22:39:06.152Z,41.88
2019-02-16T22:40:06.126Z,41.97
2019-02-16T22:41:06.162Z,42.27
2019-02-16T22:42:06.106Z,41.97
2019-02-16T22:43:06.098Z,41.67
2019-02-16T22:44:06.098Z,41.97
2019-02-16T22:45:06.070Z,42.07
2019-02-16T22:46:06.060Z,42.18
2019-02-16T22:47:06.049Z,42.18
2019-02-16T22:48:06.048Z,42.18
2019-02-16T22:49:06.032Z,42.27
2019-02-16T22:50:06.036Z,42.27
2019-02-16T22:51:06.011Z,42.38
2019-02-16T22:52:05.996Z,42.18
2019-02-16T22:53:06.054Z,42.27
2019-02-16T22:54:05.983Z,42.18
2019-02-16T22:55:05.964Z,42.77
2019-02-16T22:56:05.972Z,41.77
2019-02-16T22:57:05.941Z,43.08
2019-02-16T22:58:05.930Z,42.68
2019-02-16T22:59:05.919Z,42.77
2019-02-16T23:00:05.909Z,42.57
2019-02-16T23:01:05.894Z,42.38
2019-02-16T23:02:05.892Z,42.47
2019-02-16T23:03:05.882Z,42.47
2019-02-16T23:04:05.882Z,42.47
2019-02-16T23:05:05.865Z,42.57
2019-02-16T23:06:05.843Z,42.27
2019-02-16T23:07:05.834Z,42.57
2019-02-16T23:08:05.823Z,42.47
2019-02-16T23:09:05.811Z,42.47
2019-02-16T23:10:05.799Z,42.68
2019-02-16T23:11:05.797Z,42.47
2019-02-16T23:12:05.779Z,42.40
2019-02-16T23:13:05.773Z,42.38
2019-02-16T23:14:05.759Z,42.47
2019-02-16T23:15:05.746Z,42.47
2019-02-16T23:16:05.735Z,42.40
2019-02-16T23:17:05.728Z,42.07
2019-02-16T23:18:05.720Z,42.69
2019-02-16T23:19:05.702Z,42.18
2019-02-16T23:20:05.693Z,42.77
2019-02-16T23:21:05.690Z,42.68
2019-02-16T23:22:05.670Z,42.68
2019-02-16T23:23:05.659Z,43.40
2019-02-16T23:24:05.651Z,42.99
2019-02-16T23:25:05.638Z,42.97
2019-02-16T23:26:05.628Z,42.99
2019-02-16T23:27:05.618Z,43.18
2019-02-16T23:28:05.609Z,42.99
2019-02-16T23:29:05.604Z,42.60
2019-02-16T23:30:05.586Z,42.90
2019-02-16T23:31:05.574Z,42.90
2019-02-16T23:32:05.597Z,42.90
2019-02-16T23:33:05.549Z,43.10
2019-02-16T23:34:05.540Z,42.99
2019-02-16T23:35:05.549Z,42.90
2019-02-16T23:36:05.518Z,43.19
2019-02-16T23:37:05.509Z,43.40
2019-02-16T23:38:05.495Z,42.90
2019-02-16T23:39:05.485Z,42.99
2019-02-16T23:40:05.474Z,42.80
2019-02-16T23:41:06.448Z,43.60
2019-02-16T23:42:05.453Z,42.80
2019-02-16T23:43:05.440Z,43.50
2019-02-16T23:44:05.435Z,43.10
2019-02-16T23:45:05.454Z,43.60
2019-02-16T23:46:05.412Z,42.99
2019-02-16T23:47:05.402Z,43.40
2019-02-16T23:48:05.387Z,42.80
2019-02-16T23:49:05.378Z,43.30
2019-02-16T23:50:05.363Z,43.60
2019-02-16T23:51:05.351Z,42.90
2019-02-16T23:52:05.344Z,43.19
2019-02-16T23:53:05.329Z,43.19
2019-02-16T23:54:05.318Z,43.30
2019-02-16T23:55:05.312Z,42.90
2019-02-16T23:56:05.299Z,43.30
2019-02-16T23:57:05.305Z,42.99
2019-02-16T23:58:05.280Z,42.90
2019-02-16T23:59:05.266Z,42.80
